Time;durP1;ratioP1;P1;durP2;ratioP2;P2;SDS_P1;SDS_P2;PMS_P1;PMS_P2;Temp;Humidity;BMP_temperature;BMP_pressure;BME280_temperature;BME280_humidity;BME280_pressure;Samples;Min_cycle;Max_cycle;Signal;HPM_P1;HPM_P2
2021/06/21 00:00:32;;;;;;;0.00;0.00;;;23.20;64.60;;;;;;4224157;28;20051;-53
2021/06/21 00:02:54;;;;;;;0.00;0.00;;;23.30;65.60;;;;;;4224006;28;20054;-55
2021/06/21 00:05:17;;;;;;;0.05;0.05;;;23.20;64.60;;;;;;4224628;28;20059;-53
2021/06/21 00:07:41;;;;;;;0.20;0.20;;;23.20;64.60;;;;;;4224505;28;20044;-54
2021/06/21 00:10:03;;;;;;;0.00;0.00;;;23.20;64.60;;;;;;4224579;28;20135;-54
2021/06/21 00:12:25;;;;;;;0.10;0.10;;;23.20;65.50;;;;;;4224746;28;20051;-50
2021/06/21 00:14:49;;;;;;;0.00;0.00;;;23.20;64.60;;;;;;4224750;28;20431;-55
2021/06/21 00:17:11;;;;;;;0.00;0.00;;;23.20;64.50;;;;;;4224364;28;20059;-52
2021/06/21 00:19:33;;;;;;;0.05;0.05;;;23.20;64.50;;;;;;4207728;28;20083;-55
2021/06/21 00:21:56;;;;;;;0.08;0.08;;;23.20;64.50;;;;;;4223944;28;20063;-54
2021/06/21 00:24:20;;;;;;;0.00;0.00;;;23.20;64.50;;;;;;4224581;28;20059;-47
2021/06/21 00:26:42;;;;;;;0.00;0.00;;;23.20;64.50;;;;;;4222815;28;20059;-51
2021/06/21 00:29:04;;;;;;;0.10;0.10;;;23.20;65.30;;;;;;4224086;28;20046;-52
2021/06/21 00:31:27;;;;;;;9.40;0.65;;;23.20;64.40;;;;;;4224114;28;20055;-54
2021/06/21 00:33:49;;;;;;;0.00;0.00;;;23.20;64.50;;;;;;4224099;28;20044;-52
2021/06/21 00:36:12;;;;;;;0.35;0.35;;;23.10;64.50;;;;;;4224333;28;20069;-55
2021/06/21 00:38:34;;;;;;;0.00;0.00;;;23.20;64.40;;;;;;4223955;28;20466;-55
2021/06/21 00:40:56;;;;;;;0.20;0.20;;;23.10;64.40;;;;;;4223992;28;20052;-54
2021/06/21 00:43:18;;;;;;;0.00;0.00;;;23.10;64.40;;;;;;4224297;28;20048;-48
2021/06/21 00:45:40;;;;;;;0.00;0.00;;;23.10;64.30;;;;;;4224154;28;20079;-51
2021/06/21 00:48:04;;;;;;;0.00;0.00;;;23.10;64.30;;;;;;4225102;28;20048;-53
2021/06/21 00:50:28;;;;;;;0.17;0.17;;;23.10;64.30;;;;;;4225803;28;20549;-49
2021/06/21 00:52:54;;;;;;;0.32;0.32;;;23.10;64.30;;;;;;4226661;27;20490;-51
2021/06/21 00:55:17;;;;;;;0.00;0.00;;;23.10;64.20;;;;;;4227091;27;20130;-54
2021/06/21 00:57:39;;;;;;;0.00;0.00;;;23.10;64.20;;;;;;4226408;27;20486;-51
2021/06/21 01:00:05;;;;;;;0.00;0.00;;;23.10;64.30;;;;;;4226377;27;20062;-54
2021/06/21 01:02:28;;;;;;;0.22;0.22;;;23.10;64.10;;;;;;4226686;28;20077;-54
2021/06/21 01:04:51;;;;;;;0.00;0.00;;;23.10;64.20;;;;;;4226916;27;20536;-51
2021/06/21 01:07:13;;;;;;;0.00;0.00;;;23.10;64.10;;;;;;4226986;27;20057;-55
2021/06/21 01:09:36;;;;;;;0.00;0.00;;;23.00;64.00;;;;;;4226730;28;20044;-53
2021/06/21 01:12:03;;;;;;;0.00;0.00;;;23.10;65.00;;;;;;4226719;27;20807;-51
2021/06/21 01:14:32;;;;;;;0.45;0.45;;;23.00;64.90;;;;;;4226893;27;20115;-54
2021/06/21 01:17:02;;;;;;;0.10;0.10;;;23.00;64.10;;;;;;4226598;27;20456;-50
2021/06/21 01:19:52;;;;;;;0.10;0.10;;;23.00;64.00;;;;;;4209630;28;20058;-51
2021/06/21 01:22:45;;;;;;;1.80;0.93;;;23.00;64.10;;;;;;4209560;28;20497;-54
2021/06/21 01:25:25;;;;;;;0.00;0.00;;;23.00;64.00;;;;;;4209466;28;20349;-53
2021/06/21 01:27:57;;;;;;;0.00;0.00;;;23.00;64.00;;;;;;4209700;28;20056;-54
2021/06/21 01:30:19;;;;;;;;;;;23.00;64.10;;;;;;4209441;28;20062;-51
2021/06/21 01:32:47;;;;;;;0.15;0.15;;;22.90;63.90;;;;;;4220682;27;20381;-53
2021/06/21 01:35:15;;;;;;;0.35;0.35;;;22.90;64.10;;;;;;4226143;27;20463;-53
2021/06/21 01:37:38;;;;;;;0.00;0.00;;;22.90;64.00;;;;;;4209441;28;20210;-50
2021/06/21 01:40:03;;;;;;;0.00;0.00;;;22.90;64.00;;;;;;4209617;28;20464;-50
2021/06/21 01:42:27;;;;;;;0.00;0.00;;;22.90;64.00;;;;;;4209067;28;20051;-51
2021/06/21 01:44:55;;;;;;;0.00;0.00;;;22.90;64.00;;;;;;4211293;28;20421;-50
2021/06/21 01:47:18;;;;;;;0.28;0.28;;;22.90;64.00;;;;;;4225500;27;20051;-49
2021/06/21 01:49:47;;;;;;;0.00;0.00;;;22.90;64.90;;;;;;4226188;28;20130;-52
2021/06/21 01:52:10;;;;;;;0.00;0.00;;;22.90;64.00;;;;;;4226388;28;20101;-52
2021/06/21 01:54:34;;;;;;;0.00;0.00;;;22.90;63.90;;;;;;4225900;27;20797;-54
2021/06/21 01:56:58;;;;;;;0.00;0.00;;;22.90;63.90;;;;;;4225631;28;20830;-49
2021/06/21 01:59:21;;;;;;;0.00;0.00;;;22.90;63.90;;;;;;4226185;27;20408;-52
2021/06/21 02:01:45;;;;;;;0.00;0.00;;;22.90;63.90;;;;;;4225932;28;20043;-50
2021/06/21 02:04:08;;;;;;;0.00;0.00;;;22.90;63.90;;;;;;4209153;28;20458;-50
2021/06/21 02:06:33;;;;;;;0.57;0.57;;;22.90;64.00;;;;;;4210810;28;20064;-54
2021/06/21 02:08:56;;;;;;;0.00;0.00;;;22.90;63.90;;;;;;4225814;28;20055;-53
2021/06/21 02:11:19;;;;;;;0.00;0.00;;;22.80;63.90;;;;;;4225632;27;20043;-51
2021/06/21 02:13:42;;;;;;;0.00;0.00;;;22.80;63.80;;;;;;4225514;27;20051;-54
2021/06/21 02:16:05;;;;;;;0.00;0.00;;;22.80;63.90;;;;;;4225318;27;20043;-53
2021/06/21 02:18:28;;;;;;;0.00;0.00;;;22.80;63.80;;;;;;4225316;27;20059;-55
2021/06/21 02:20:53;;;;;;;1.35;1.23;;;22.80;63.80;;;;;;4225427;27;20056;-54
2021/06/21 02:23:19;;;;;;;0.05;0.05;;;22.80;63.80;;;;;;4225498;27;20138;-51
2021/06/21 02:25:41;;;;;;;0.10;0.10;;;22.80;63.80;;;;;;4225237;28;20052;-52
2021/06/21 02:28:04;;;;;;;1.55;0.70;;;22.80;63.80;;;;;;4225732;28;20043;-51
2021/06/21 02:30:28;;;;;;;0.13;0.13;;;22.80;63.80;;;;;;4225235;27;20078;-51
2021/06/21 02:32:51;;;;;;;0.00;0.00;;;22.80;63.80;;;;;;4225178;27;20451;-54
2021/06/21 02:35:15;;;;;;;0.00;0.00;;;22.80;63.80;;;;;;4225219;27;20406;-51
2021/06/21 02:37:37;;;;;;;0.00;0.00;;;22.80;63.70;;;;;;4225552;27;20057;-52
2021/06/21 02:40:01;;;;;;;0.20;0.20;;;22.80;63.70;;;;;;4225339;28;20124;-53
2021/06/21 02:42:23;;;;;;;0.03;0.03;;;22.80;63.70;;;;;;4225614;28;20480;-52
2021/06/21 02:44:45;;;;;;;0.00;0.00;;;22.80;63.70;;;;;;4225220;28;20147;-51
2021/06/21 02:47:08;;;;;;;0.00;0.00;;;22.80;63.80;;;;;;4225043;27;20039;-50
2021/06/21 02:49:30;;;;;;;0.00;0.00;;;22.80;63.80;;;;;;4224889;27;20051;-55
2021/06/21 02:51:59;;;;;;;0.20;0.20;;;22.70;64.60;;;;;;4223998;28;20573;-55
2021/06/21 02:54:27;;;;;;;0.30;0.30;;;22.70;63.80;;;;;;4224853;27;20071;-50
2021/06/21 02:56:59;;;;;;;0.10;0.10;;;22.70;63.80;;;;;;4225332;28;20122;-49
2021/06/21 02:59:24;;;;;;;0.00;0.00;;;22.70;63.80;;;;;;4224839;27;20052;-53
2021/06/21 03:01:51;;;;;;;0.00;0.00;;;22.70;63.80;;;;;;4224699;28;20123;-53
2021/06/21 03:04:16;;;;;;;1.85;0.65;;;22.70;63.80;;;;;;4224806;28;20134;-52
2021/06/21 03:06:38;;;;;;;0.00;0.00;;;22.70;63.90;;;;;;4224854;28;20134;-52
2021/06/21 03:09:01;;;;;;;0.20;0.20;;;22.70;63.90;;;;;;4224411;27;20500;-52
2021/06/21 03:11:25;;;;;;;0.00;0.00;;;22.70;63.90;;;;;;4224927;28;20048;-49
2021/06/21 03:13:52;;;;;;;0.03;0.03;;;22.70;63.90;;;;;;4225043;28;20115;-50
2021/06/21 03:16:16;;;;;;;0.00;0.00;;;22.60;63.90;;;;;;4224257;28;20047;-53
2021/06/21 03:18:40;;;;;;;0.00;0.00;;;22.60;64.00;;;;;;4224906;28;20364;-52
2021/06/21 03:21:02;;;;;;;0.00;0.00;;;22.60;64.00;;;;;;4225064;27;20487;-51
2021/06/21 03:23:27;;;;;;;0.38;0.38;;;22.60;64.00;;;;;;4224785;28;20513;-53
2021/06/21 03:25:52;;;;;;;0.00;0.00;;;22.60;64.00;;;;;;4224659;28;20554;-52
2021/06/21 03:28:15;;;;;;;0.00;0.00;;;22.60;64.10;;;;;;4224070;28;20728;-54
2021/06/21 03:30:40;;;;;;;0.00;0.00;;;22.60;64.10;;;;;;4224443;28;20051;-52
2021/06/21 03:33:03;;;;;;;0.00;0.00;;;22.50;64.10;;;;;;4224576;28;20405;-53
2021/06/21 03:35:26;;;;;;;0.00;0.00;;;22.60;64.20;;;;;;4223434;28;20537;-51
2021/06/21 03:37:48;;;;;;;0.10;0.10;;;22.50;64.20;;;;;;4224715;28;20054;-55
2021/06/21 03:40:12;;;;;;;0.00;0.00;;;22.60;64.20;;;;;;4224788;28;20052;-53
2021/06/21 03:42:35;;;;;;;0.00;0.00;;;22.50;64.10;;;;;;4224808;28;20050;-52
2021/06/21 03:44:57;;;;;;;0.10;0.10;;;22.60;64.30;;;;;;4224631;28;20472;-54
2021/06/21 03:47:21;;;;;;;0.00;0.00;;;22.60;64.30;;;;;;4224470;28;20047;-52
2021/06/21 03:49:47;;;;;;;0.00;0.00;;;22.50;64.30;;;;;;4224250;28;20051;-53
2021/06/21 03:52:09;;;;;;;0.20;0.20;;;22.50;64.30;;;;;;4224586;28;20055;-53
2021/06/21 03:54:31;;;;;;;0.00;0.00;;;22.50;64.30;;;;;;4224436;28;20047;-53
2021/06/21 03:56:53;;;;;;;0.00;0.00;;;22.50;64.40;;;;;;4224260;28;20097;-50
2021/06/21 03:59:15;;;;;;;0.00;0.00;;;22.50;64.40;;;;;;4224033;28;20040;-53
2021/06/21 04:01:38;;;;;;;0.43;0.43;;;22.50;64.50;;;;;;4213289;28;20135;-54
2021/06/21 04:04:01;;;;;;;0.57;0.57;;;22.40;65.30;;;;;;4224339;28;20459;-55
2021/06/21 04:06:24;;;;;;;0.00;0.00;;;22.50;64.60;;;;;;4224371;28;20071;-52
2021/06/21 04:08:46;;;;;;;0.00;0.00;;;22.50;65.50;;;;;;4224419;28;20040;-54
2021/06/21 04:11:08;;;;;;;0.00;0.00;;;22.50;64.60;;;;;;4224295;28;20056;-54
2021/06/21 04:13:33;;;;;;;0.00;0.00;;;22.50;64.60;;;;;;4223956;28;20063;-50
2021/06/21 04:15:55;;;;;;;0.10;0.10;;;22.50;64.70;;;;;;4207742;28;20093;-54
2021/06/21 04:18:18;;;;;;;0.15;0.15;;;22.50;64.70;;;;;;4224361;28;20043;-53
2021/06/21 04:20:44;;;;;;;0.00;0.00;;;22.40;64.70;;;;;;4223743;27;20121;-54
2021/06/21 04:23:07;;;;;;;2.10;1.30;;;22.40;64.80;;;;;;4227613;27;20517;-53
2021/06/21 04:25:29;;;;;;;0.00;0.00;;;22.40;64.80;;;;;;4227646;27;20531;-51
2021/06/21 04:27:55;;;;;;;0.00;0.00;;;22.40;64.90;;;;;;4227308;27;20120;-52
2021/06/21 04:30:21;;;;;;;0.00;0.00;;;22.40;64.80;;;;;;4227306;27;20083;-53
2021/06/21 04:32:43;;;;;;;0.00;0.00;;;22.40;65.00;;;;;;4227055;27;20043;-51
2021/06/21 04:35:08;;;;;;;0.00;0.00;;;22.40;65.00;;;;;;4227477;27;20074;-50
2021/06/21 04:37:31;;;;;;;0.00;0.00;;;22.40;65.00;;;;;;4227789;27;20036;-56
2021/06/21 04:39:53;;;;;;;0.00;0.00;;;22.40;65.10;;;;;;4227183;28;20058;-50
2021/06/21 04:42:15;;;;;;;0.00;0.00;;;22.40;65.30;;;;;;4227501;27;20051;-49
2021/06/21 04:44:38;;;;;;;0.00;0.00;;;22.40;65.40;;;;;;4227272;27;20048;-52
2021/06/21 04:47:00;;;;;;;0.10;0.10;;;22.40;65.40;;;;;;4226566;28;20077;-51
2021/06/21 04:49:22;;;;;;;0.00;0.00;;;22.40;65.50;;;;;;4227022;28;20130;-48
2021/06/21 04:51:45;;;;;;;0.00;0.00;;;22.40;65.60;;;;;;4226984;27;20040;-52
2021/06/21 04:54:10;;;;;;;0.00;0.00;;;22.40;65.60;;;;;;4227161;27;20050;-54
2021/06/21 04:56:34;;;;;;;0.00;0.00;;;22.40;65.60;;;;;;4226906;27;20074;-52
2021/06/21 04:58:56;;;;;;;0.43;0.43;;;22.40;65.60;;;;;;4226909;27;20074;-49
2021/06/21 05:01:18;;;;;;;0.00;0.00;;;22.40;65.60;;;;;;4225070;28;20051;-49
2021/06/21 05:03:40;;;;;;;0.00;0.00;;;22.30;65.60;;;;;;4226676;27;20048;-53
2021/06/21 05:06:02;;;;;;;0.08;0.08;;;22.30;66.60;;;;;;4226592;27;20051;-51
2021/06/21 05:08:25;;;;;;;0.00;0.00;;;22.30;65.70;;;;;;4226248;28;20048;-54
2021/06/21 05:10:48;;;;;;;0.00;0.00;;;22.40;65.70;;;;;;4226470;27;20148;-52
2021/06/21 05:13:10;;;;;;;0.00;0.00;;;22.30;65.70;;;;;;4227034;27;20075;-54
2021/06/21 05:15:32;;;;;;;0.00;0.00;;;22.30;65.90;;;;;;4226878;27;20051;-52
2021/06/21 05:17:55;;;;;;;0.00;0.00;;;22.30;65.90;;;;;;4226932;27;20054;-54
2021/06/21 05:20:17;;;;;;;0.10;0.10;;;22.30;65.90;;;;;;4226672;27;20508;-55
2021/06/21 05:22:39;;;;;;;0.00;0.00;;;22.30;66.00;;;;;;4226213;27;20047;-50
2021/06/21 05:25:01;;;;;;;0.00;0.00;;;22.30;66.20;;;;;;4225508;27;20047;-51
2021/06/21 05:27:25;;;;;;;0.00;0.00;;;22.30;66.20;;;;;;4224343;28;20048;-51
2021/06/21 05:29:47;;;;;;;0.00;0.00;;;22.30;66.20;;;;;;4225869;27;20093;-56
2021/06/21 05:32:09;;;;;;;0.00;0.00;;;22.30;66.20;;;;;;4215423;28;22147;-50
2021/06/21 05:34:32;;;;;;;0.00;0.00;;;22.30;67.00;;;;;;4224681;28;20109;-53
2021/06/21 05:36:54;;;;;;;0.00;0.00;;;22.30;66.20;;;;;;4226038;27;20051;-51
2021/06/21 05:39:15;;;;;;;0.00;0.00;;;22.30;66.10;;;;;;4225867;27;20489;-53
2021/06/21 05:41:38;;;;;;;0.00;0.00;;;22.30;66.10;;;;;;4225643;27;20044;-53
2021/06/21 05:44:01;;;;;;;0.00;0.00;;;22.30;66.10;;;;;;4225173;27;20054;-51
2021/06/21 05:46:24;;;;;;;0.00;0.00;;;22.20;66.10;;;;;;4209372;28;20135;-50
2021/06/21 05:48:46;;;;;;;0.00;0.00;;;22.20;67.00;;;;;;4209573;28;20075;-53
2021/06/21 05:51:08;;;;;;;0.00;0.00;;;22.20;66.10;;;;;;4220956;28;20078;-53
2021/06/21 05:53:30;;;;;;;0.00;0.00;;;22.20;66.10;;;;;;4225499;27;20062;-51
2021/06/21 05:55:52;;;;;;;0.00;0.00;;;22.20;66.10;;;;;;4221156;28;20056;-53
2021/06/21 05:58:14;;;;;;;0.00;0.00;;;22.20;66.10;;;;;;4225993;27;20104;-51
2021/06/21 06:00:38;;;;;;;0.00;0.00;;;22.20;66.00;;;;;;4225758;28;20126;-52
2021/06/21 06:03:00;;;;;;;0.40;0.40;;;22.20;66.10;;;;;;4225606;28;20047;-49
2021/06/21 06:05:22;;;;;;;0.17;0.17;;;22.10;66.00;;;;;;4225440;27;20476;-53
2021/06/21 06:07:46;;;;;;;1.00;0.55;;;22.10;66.00;;;;;;4225085;27;20051;-52
2021/06/21 06:10:09;;;;;;;0.00;0.00;;;22.10;66.00;;;;;;4224887;28;20047;-54
2021/06/21 06:12:31;;;;;;;0.00;0.00;;;22.10;66.00;;;;;;4225601;27;20495;-51
2021/06/21 06:14:53;;;;;;;0.03;0.03;;;22.10;66.10;;;;;;4224247;28;20066;-53
2021/06/21 06:17:17;;;;;;;0.00;0.00;;;22.10;66.10;;;;;;4223904;28;20048;-51
2021/06/21 06:19:39;;;;;;;0.00;0.00;;;22.10;66.10;;;;;;4224423;28;20514;-52
2021/06/21 06:22:00;;;;;;;0.00;0.00;;;22.10;66.90;;;;;;4225551;27;20051;-52
2021/06/21 06:24:25;;;;;;;0.10;0.10;;;22.10;66.20;;;;;;4208475;28;20562;-52
2021/06/21 06:26:47;;;;;;;0.38;0.38;;;22.10;66.20;;;;;;4224905;28;20047;-54
2021/06/21 06:29:09;;;;;;;0.00;0.00;;;22.10;66.20;;;;;;4225095;27;20489;-50
2021/06/21 06:31:32;;;;;;;0.47;0.47;;;22.10;66.20;;;;;;4225024;27;20043;-51
2021/06/21 06:33:56;;;;;;;0.00;0.00;;;22.10;66.30;;;;;;4225408;27;20040;-51
2021/06/21 06:36:18;;;;;;;0.10;0.10;;;22.10;66.20;;;;;;4223177;28;20554;-50
2021/06/21 06:38:41;;;;;;;0.00;0.00;;;22.10;66.20;;;;;;4224896;27;20073;-54
2021/06/21 06:41:05;;;;;;;0.00;0.00;;;22.00;66.20;;;;;;4224795;27;20047;-54
2021/06/21 06:43:27;;;;;;;0.00;0.00;;;22.10;67.20;;;;;;4224990;27;20521;-52
2021/06/21 06:45:49;;;;;;;0.00;0.00;;;22.00;66.20;;;;;;4224233;28;20047;-53
2021/06/21 06:48:11;;;;;;;0.00;0.00;;;22.10;66.30;;;;;;4225427;28;20057;-55
2021/06/21 06:50:35;;;;;;;0.13;0.13;;;22.00;66.20;;;;;;4225111;27;20120;-51
2021/06/21 06:52:58;;;;;;;0.10;0.10;;;22.00;66.20;;;;;;4223680;27;20454;-56
2021/06/21 06:58:00;;;;;;;0.20;0.20;;;22.00;66.30;;;;;;4225008;27;20051;-52
2021/06/21 07:00:22;;;;;;;0.20;0.20;;;22.00;66.30;;;;;;4224818;27;20096;-54
2021/06/21 07:02:46;;;;;;;0.00;0.00;;;22.00;66.30;;;;;;4224081;27;20051;-57
2021/06/21 07:05:10;;;;;;;0.00;0.00;;;21.90;66.30;;;;;;4224596;28;20074;-54
2021/06/21 07:07:33;;;;;;;0.00;0.00;;;22.00;66.40;;;;;;4225016;28;20138;-51
2021/06/21 07:09:55;;;;;;;0.00;0.00;;;22.00;66.30;;;;;;4223677;28;20055;-50
2021/06/21 07:12:17;;;;;;;0.00;0.00;;;22.00;66.40;;;;;;4224968;27;20063;-52
2021/06/21 07:14:40;;;;;;;0.00;0.00;;;21.90;66.20;;;;;;4224395;28;20092;-54
2021/06/21 07:17:02;;;;;;;0.00;0.00;;;22.00;66.40;;;;;;4223693;27;20058;-50
2021/06/21 07:19:25;;;;;;;0.00;0.00;;;21.90;66.40;;;;;;4223861;28;20414;-51
2021/06/21 07:21:47;;;;;;;0.00;0.00;;;21.90;66.30;;;;;;4224823;28;20075;-50
2021/06/21 07:24:11;;;;;;;0.00;0.00;;;21.90;66.30;;;;;;4224445;27;20096;-51
2021/06/21 07:26:34;;;;;;;0.00;0.00;;;21.90;66.40;;;;;;4224386;28;20085;-52
2021/06/21 07:28:56;;;;;;;0.00;0.00;;;21.90;66.40;;;;;;4224156;28;20046;-52
2021/06/21 07:31:19;;;;;;;0.00;0.00;;;21.90;66.40;;;;;;4224297;28;20135;-53
2021/06/21 07:33:41;;;;;;;0.00;0.00;;;21.90;66.40;;;;;;4224346;28;20047;-52
2021/06/21 07:36:03;;;;;;;0.38;0.38;;;21.90;66.40;;;;;;4224713;28;20051;-53
2021/06/21 07:38:25;;;;;;;0.00;0.00;;;21.80;66.40;;;;;;4224261;28;20044;-53
2021/06/21 07:40:49;;;;;;;0.00;0.00;;;21.90;66.50;;;;;;4214274;28;20081;-48
2021/06/21 07:43:11;;;;;;;0.52;0.52;;;21.90;66.60;;;;;;4223140;28;20123;-52
2021/06/21 07:45:34;;;;;;;0.00;0.00;;;21.90;66.80;;;;;;4223842;28;20055;-52
2021/06/21 07:47:58;;;;;;;0.00;0.00;;;21.90;67.00;;;;;;4212640;28;20056;-52
2021/06/21 07:50:20;;;;;;;0.00;0.00;;;21.90;67.20;;;;;;4223604;28;20047;-51
2021/06/21 07:52:42;;;;;;;0.25;0.25;;;21.80;67.20;;;;;;4207645;28;20044;-52
2021/06/21 07:55:05;;;;;;;0.00;0.00;;;21.90;67.40;;;;;;4221170;28;20140;-54
2021/06/21 07:57:28;;;;;;;0.15;0.15;;;21.90;67.40;;;;;;4225223;27;20051;-50
2021/06/21 07:59:50;;;;;;;0.10;0.10;;;21.90;67.50;;;;;;4227217;27;20394;-56
2021/06/21 08:02:12;;;;;;;0.00;0.00;;;21.90;67.60;;;;;;4227889;27;20055;-52
2021/06/21 08:04:34;;;;;;;0.43;0.43;;;21.90;67.60;;;;;;4227984;27;20130;-52
2021/06/21 08:06:57;;;;;;;0.00;0.00;;;21.90;67.60;;;;;;4226102;27;20185;-50
2021/06/21 08:09:19;;;;;;;0.00;0.00;;;21.80;67.50;;;;;;4226388;28;20047;-51
2021/06/21 08:11:41;;;;;;;0.43;0.43;;;21.80;67.60;;;;;;4227006;27;20051;-54
2021/06/21 08:14:05;;;;;;;0.63;0.63;;;21.80;67.70;;;;;;4226813;28;20039;-52
2021/06/21 08:16:29;;;;;;;0.10;0.10;;;21.80;67.70;;;;;;4224247;27;20744;-52
2021/06/21 08:18:51;;;;;;;3.20;1.75;;;21.80;67.80;;;;;;4224964;27;20416;-53
2021/06/21 08:21:13;;;;;;;0.00;0.00;;;21.80;67.80;;;;;;4224448;27;20085;-54
2021/06/21 08:23:35;;;;;;;2.25;0.47;;;21.80;67.80;;;;;;4226232;27;20051;-52
2021/06/21 08:25:57;;;;;;;0.10;0.10;;;21.80;67.80;;;;;;4224925;27;20572;-55
2021/06/21 08:28:20;;;;;;;0.10;0.10;;;21.80;67.90;;;;;;4227608;27;20054;-54
2021/06/21 08:30:46;;;;;;;0.00;0.00;;;21.80;67.90;;;;;;4227010;28;20481;-53
2021/06/21 08:33:08;;;;;;;0.75;0.75;;;21.80;67.80;;;;;;4227223;27;20154;-55
2021/06/21 08:35:31;;;;;;;0.00;0.00;;;21.80;67.80;;;;;;4210739;28;20105;-53
2021/06/21 08:37:54;;;;;;;0.00;0.00;;;21.80;67.80;;;;;;4224182;28;20092;-55
2021/06/21 08:40:17;;;;;;;2.85;1.65;;;21.70;67.80;;;;;;4226517;27;20052;-48
2021/06/21 08:42:40;;;;;;;0.00;0.00;;;21.70;67.80;;;;;;4226627;27;20126;-54
2021/06/21 08:45:02;;;;;;;0.25;0.22;;;21.80;67.80;;;;;;4226649;27;20651;-49
2021/06/21 08:47:28;;;;;;;0.03;0.03;;;21.80;67.80;;;;;;4226886;27;20075;-52
2021/06/21 08:49:51;;;;;;;0.47;0.25;;;21.70;68.60;;;;;;4226050;27;20130;-55
2021/06/21 08:52:13;;;;;;;0.13;0.13;;;21.70;67.70;;;;;;4227113;27;20094;-52
2021/06/21 08:54:35;;;;;;;0.00;0.00;;;21.70;67.70;;;;;;4215565;28;20055;-54
2021/06/21 08:56:58;;;;;;;0.00;0.00;;;21.70;67.60;;;;;;4222126;27;20478;-54
2021/06/21 08:59:21;;;;;;;0.00;0.00;;;21.70;67.60;;;;;;4226554;27;20044;-50
2021/06/21 09:01:43;;;;;;;0.00;0.00;;;21.70;67.60;;;;;;4226388;27;20052;-55
2021/06/21 09:04:09;;;;;;;0.00;0.00;;;21.70;67.60;;;;;;4226125;28;20048;-55
2021/06/21 09:06:36;;;;;;;0.00;0.00;;;21.70;67.70;;;;;;4226662;27;20051;-53
2021/06/21 09:08:59;;;;;;;0.10;0.10;;;21.70;67.60;;;;;;4226570;27;20054;-56
2021/06/21 09:11:21;;;;;;;0.00;0.00;;;21.70;67.60;;;;;;4225125;27;20055;-54
2021/06/21 09:13:44;;;;;;;0.10;0.10;;;21.70;67.60;;;;;;4214078;27;20043;-51
2021/06/21 09:16:06;;;;;;;0.90;0.90;;;21.70;67.60;;;;;;4219579;27;20059;-53
2021/06/21 09:18:34;;;;;;;0.00;0.00;;;21.60;67.60;;;;;;4226617;27;20134;-53
2021/06/21 09:21:24;;;;;;;0.10;0.10;;;21.70;67.70;;;;;;4225879;27;20070;-54
2021/06/21 09:24:01;;;;;;;0.20;0.20;;;21.60;67.70;;;;;;4225845;27;20048;-54
2021/06/21 09:26:25;;;;;;;2.80;1.45;;;21.60;67.60;;;;;;4226193;27;20051;-54
2021/06/21 09:28:47;;;;;;;0.00;0.00;;;21.60;67.70;;;;;;4223913;27;20046;-53
2021/06/21 09:31:10;;;;;;;0.00;0.00;;;21.60;67.70;;;;;;4222637;28;20052;-54
2021/06/21 09:33:32;;;;;;;0.93;0.88;;;21.60;67.70;;;;;;4226488;27;20085;-54
2021/06/21 09:35:54;;;;;;;0.00;0.00;;;21.60;67.70;;;;;;4225475;27;20040;-52
2021/06/21 09:38:19;;;;;;;0.80;0.80;;;21.60;67.70;;;;;;4225622;27;20051;-52
2021/06/21 09:40:46;;;;;;;0.00;0.00;;;21.60;67.70;;;;;;4225283;28;20541;-53
2021/06/21 09:43:24;;;;;;;0.20;0.20;;;21.60;67.70;;;;;;4225773;27;20047;-56
2021/06/21 09:46:02;;;;;;;0.45;0.45;;;21.60;67.70;;;;;;4224438;28;20051;-55
2021/06/21 09:48:31;;;;;;;0.00;0.00;;;21.50;67.60;;;;;;4223615;27;20130;-54
2021/06/21 09:50:53;;;;;;;0.00;0.00;;;21.60;67.70;;;;;;4225301;27;20087;-56
2021/06/21 09:53:25;;;;;;;0.10;0.10;;;21.60;67.70;;;;;;4224349;27;20051;-54
2021/06/21 09:55:47;;;;;;;0.00;0.00;;;21.60;67.70;;;;;;4225868;27;20097;-52
2021/06/21 09:58:12;;;;;;;0.00;0.00;;;21.60;67.70;;;;;;4225996;27;20142;-55
2021/06/21 10:00:35;;;;;;;0.00;0.00;;;21.60;67.70;;;;;;4226168;27;20619;-55
2021/06/21 10:03:18;;;;;;;0.20;0.20;;;21.60;67.70;;;;;;4225974;27;20040;-53
2021/06/21 10:05:43;;;;;;;0.00;0.00;;;21.60;67.70;;;;;;4223959;28;20044;-51
2021/06/21 10:08:05;;;;;;;0.10;0.10;;;21.60;67.70;;;;;;4218997;27;20127;-54
2021/06/21 10:10:33;;;;;;;0.00;0.00;;;21.60;68.60;;;;;;4225329;27;20568;-54
2021/06/21 10:12:56;;;;;;;0.00;0.00;;;21.60;67.70;;;;;;4225847;28;20049;-55
2021/06/21 10:15:18;;;;;;;0.00;0.00;;;21.50;68.60;;;;;;4212454;28;20043;-52
2021/06/21 10:17:40;;;;;;;0.15;0.15;;;21.60;67.80;;;;;;4208743;28;20036;-54
2021/06/21 10:20:04;;;;;;;0.03;0.03;;;21.60;67.20;;;;;;4209037;28;20059;-53
2021/06/21 10:22:27;;;;;;;3.03;2.08;;;21.50;67.80;;;;;;4220244;27;20594;-53
2021/06/21 10:24:51;;;;;;;0.00;0.00;;;21.60;67.80;;;;;;4225396;27;20044;-56
2021/06/21 10:27:17;;;;;;;0.00;0.00;;;21.50;67.80;;;;;;4208838;28;20048;-57
2021/06/21 10:29:41;;;;;;;0.25;0.25;;;21.50;67.80;;;;;;4208888;28;20460;-52
2021/06/21 10:32:06;;;;;;;0.00;0.00;;;21.50;67.80;;;;;;4209032;28;20047;-54
2021/06/21 10:34:30;;;;;;;0.20;0.20;;;21.50;67.80;;;;;;4220759;28;20047;-55
2021/06/21 10:36:56;;;;;;;0.00;0.00;;;21.50;67.80;;;;;;4224880;27;20480;-54
2021/06/21 10:39:19;;;;;;;0.80;0.75;;;21.50;67.90;;;;;;4225250;27;20149;-53
2021/06/21 10:41:43;;;;;;;6.50;0.40;;;21.50;67.80;;;;;;4213072;28;20130;-54
2021/06/21 10:44:07;;;;;;;0.00;0.00;;;21.50;67.80;;;;;;4222933;27;20047;-52
2021/06/21 10:46:32;;;;;;;0.00;0.00;;;21.40;67.80;;;;;;4225603;28;20048;-56
2021/06/21 10:49:34;;;;;;;0.00;0.00;;;21.50;67.90;;;;;;4225269;28;20074;-53
2021/06/21 10:51:56;;;;;;;0.00;0.00;;;21.50;67.90;;;;;;4224789;28;20043;-53
2021/06/21 10:54:24;;;;;;;0.00;0.00;;;21.40;67.80;;;;;;4225256;28;20097;-55
2021/06/21 10:56:48;;;;;;;0.00;0.00;;;21.40;67.90;;;;;;4224886;27;20082;-54
2021/06/21 10:59:13;;;;;;;0.20;0.20;;;21.50;68.00;;;;;;4219832;28;20413;-54
2021/06/21 11:01:44;;;;;;;0.00;0.00;;;21.50;67.90;;;;;;4208527;28;20052;-51
2021/06/21 11:04:07;;;;;;;0.00;0.00;;;21.50;67.90;;;;;;4208540;28;20060;-52
2021/06/21 11:06:41;;;;;;;0.00;0.00;;;21.50;68.80;;;;;;4208227;28;20044;-52
2021/06/21 11:09:06;;;;;;;0.00;0.00;;;21.50;68.00;;;;;;4221412;28;20051;-52
2021/06/21 11:11:54;;;;;;;0.00;0.00;;;21.40;67.90;;;;;;4224573;28;20062;-50
2021/06/21 11:14:23;;;;;;;0.00;0.00;;;21.40;68.00;;;;;;4224340;28;20050;-53
2021/06/21 11:16:47;;;;;;;0.00;0.00;;;21.40;68.00;;;;;;4224101;28;20051;-53
2021/06/21 11:19:34;;;;;;;5.68;0.80;;;21.40;68.10;;;;;;4224663;27;20048;-51
2021/06/21 11:21:59;;;;;;;0.00;0.00;;;21.40;68.10;;;;;;4224126;28;20043;-55
2021/06/21 11:25:06;;;;;;;0.00;0.00;;;21.40;68.60;;;;;;4224881;28;20046;-54
2021/06/21 11:27:51;;;;;;;0.00;0.00;;;21.40;68.70;;;;;;4212383;28;20154;-56
2021/06/21 11:30:35;;;;;;;0.57;0.45;;;21.50;69.10;;;;;;4223593;28;20044;-51
2021/06/21 11:33:01;;;;;;;0.00;0.00;;;21.50;69.00;;;;;;4212597;28;20051;-56
2021/06/21 11:36:04;;;;;;;0.00;0.00;;;21.50;68.80;;;;;;4221617;28;20054;-54
2021/06/21 11:38:35;;;;;;;0.00;0.00;;;21.40;68.50;;;;;;4223913;28;20497;-55
2021/06/21 11:41:20;;;;;;;0.00;0.00;;;21.40;68.40;;;;;;4224191;28;20112;-57
2021/06/21 11:43:47;;;;;;;0.00;0.00;;;21.40;68.40;;;;;;4221432;28;20048;-54
2021/06/21 11:46:11;;;;;;;0.00;0.00;;;21.40;68.40;;;;;;4223153;28;20085;-55
2021/06/21 11:48:36;;;;;;;2.75;1.17;;;21.40;68.30;;;;;;4224474;28;20134;-54
2021/06/21 11:51:00;;;;;;;0.00;0.00;;;21.40;68.30;;;;;;4224245;28;20171;-56
2021/06/21 11:53:25;;;;;;;0.00;0.00;;;21.40;68.40;;;;;;4224572;28;20509;-53
2021/06/21 11:55:47;;;;;;;0.05;0.05;;;21.30;68.30;;;;;;4224232;28;20058;-51
2021/06/21 11:58:10;;;;;;;0.00;0.00;;;21.30;68.30;;;;;;4224417;28;20040;-50
2021/06/21 12:00:35;;;;;;;0.00;0.00;;;21.30;68.30;;;;;;4224478;28;20048;-55
2021/06/21 12:03:03;;;;;;;0.00;0.00;;;21.30;68.30;;;;;;4215035;28;20050;-52
2021/06/21 12:05:25;;;;;;;0.00;0.00;;;21.30;68.30;;;;;;4224393;28;20100;-52
2021/06/21 12:07:47;;;;;;;0.00;0.00;;;21.30;69.10;;;;;;4224567;28;20142;-53
2021/06/21 12:10:11;;;;;;;0.00;0.00;;;21.30;68.30;;;;;;4222980;28;20051;-54
2021/06/21 12:12:35;;;;;;;0.00;0.00;;;21.30;68.20;;;;;;4224352;28;20054;-53
2021/06/21 12:14:58;;;;;;;0.00;0.00;;;21.30;68.30;;;;;;4224497;28;20058;-55
2021/06/21 12:17:22;;;;;;;0.00;0.00;;;21.30;68.30;;;;;;4224605;28;20047;-54
2021/06/21 12:19:58;;;;;;;0.00;0.00;;;21.20;68.20;;;;;;4224176;28;20159;-57
2021/06/21 12:22:23;;;;;;;0.00;0.00;;;21.30;68.30;;;;;;4224373;28;20051;-56
2021/06/21 12:24:46;;;;;;;0.00;0.00;;;21.30;68.30;;;;;;4224326;28;20065;-56
2021/06/21 12:27:11;;;;;;;0.00;0.00;;;21.30;68.30;;;;;;4224405;28;20051;-55
2021/06/21 12:29:35;;;;;;;0.00;0.00;;;21.30;68.30;;;;;;4224102;28;20055;-56
2021/06/21 12:32:00;;;;;;;0.00;0.00;;;21.30;68.40;;;;;;4224367;28;20048;-57
2021/06/21 12:34:51;;;;;;;0.00;0.00;;;21.20;68.30;;;;;;4224154;28;20048;-54
2021/06/21 12:37:18;;;;;;;0.00;0.00;;;21.20;68.40;;;;;;4224142;28;20044;-54